Time;durP1;ratioP1;P1;durP2;ratioP2;P2;SDS_P1;SDS_P2;PMS_P1;PMS_P2;Temp;Humidity;BMP_temperature;BMP_pressure;BME280_temperature;BME280_humidity;BME280_pressure;Samples;Min_cycle;Max_cycle;Signal;HPM_P1;HPM_P2
2023/11/16 00:00:21;;;;;;;4.00;0.95;;;;;;;6.42;100.00;93294.19;2103624;28;20471;-79
2023/11/16 00:05:09;;;;;;;3.10;0.75;;;;;;;6.63;100.00;93301.31;2108813;28;20072;-78
2023/11/16 00:06:10;;;;;;;2.20;0.70;;;;;;;6.63;100.00;93296.78;2090030;28;20025;-79
2023/11/16 00:09:23;;;;;;;2.85;0.73;;;;;;;6.54;100.00;93294.53;2106133;28;20032;-81
2023/11/16 00:13:10;;;;;;;3.30;0.88;;;;;;;6.62;100.00;93295.25;2107952;28;20082;-79
2023/11/16 00:14:11;;;;;;;7.25;0.98;;;;;;;6.62;100.00;93297.16;2101678;28;20024;-80
2023/11/16 00:15:12;;;;;;;4.28;0.95;;;;;;;6.64;100.00;93303.59;2105941;28;20028;-79
2023/11/16 00:16:16;;;;;;;2.75;0.98;;;;;;;6.66;100.00;93296.00;2107745;28;20076;-79
2023/11/16 00:17:18;;;;;;;6.28;1.17;;;;;;;6.59;100.00;93295.28;2107448;28;20128;-79
2023/11/16 00:18:18;;;;;;;2.35;1.08;;;;;;;6.52;100.00;93298.72;2100470;28;20012;-81
2023/11/16 00:19:23;;;;;;;4.72;1.00;;;;;;;6.44;100.00;93297.97;2104595;28;20058;-79
2023/11/16 00:20:25;;;;;;;5.97;1.27;;;;;;;6.39;100.00;93298.38;2103231;28;20058;-78
2023/11/16 00:21:26;;;;;;;8.32;1.10;;;;;;;6.37;100.00;93297.25;2095504;28;20028;-78
2023/11/16 00:22:28;;;;;;;4.05;1.10;;;;;;;6.43;100.00;93303.66;2095498;28;20021;-78
2023/11/16 00:23:28;;;;;;;2.50;0.70;;;;;;;6.46;100.00;93301.00;2114091;28;20066;-79
2023/11/16 00:24:30;;;;;;;3.65;0.80;;;;;;;6.51;100.00;93300.59;2124612;27;20524;-80
2023/11/16 00:25:31;;;;;;;3.40;0.70;;;;;;;6.63;100.00;93299.44;2106796;28;20024;-77
2023/11/16 00:26:36;;;;;;;4.30;0.90;;;;;;;6.77;100.00;93302.03;2103037;28;20037;-79
2023/11/16 00:27:38;;;;;;;3.15;0.82;;;;;;;6.79;100.00;93294.41;2114968;28;20024;-78
2023/11/16 00:28:40;;;;;;;5.68;1.10;;;;;;;6.72;100.00;93296.38;2106779;28;20023;-79
2023/11/16 00:29:41;;;;;;;2.75;0.95;;;;;;;6.57;100.00;93298.31;2097826;28;20342;-79
2023/11/16 00:30:42;;;;;;;3.17;0.90;;;;;;;6.66;100.00;93300.53;2106849;28;20032;-78
2023/11/16 00:31:43;;;;;;;2.97;0.82;;;;;;;6.74;100.00;93302.03;2106530;28;20107;-79
2023/11/16 00:32:44;;;;;;;2.20;0.88;;;;;;;6.67;100.00;93300.19;2107029;28;20028;-81
2023/11/16 00:33:45;;;;;;;3.70;1.00;;;;;;;6.63;100.00;93296.00;2117752;27;20042;-81
2023/11/16 00:34:52;;;;;;;3.25;1.02;;;;;;;6.51;100.00;93287.31;2099464;28;20111;-79
2023/11/16 00:35:58;;;;;;;2.97;0.90;;;;;;;6.60;100.00;93286.91;2095736;28;20021;-82
2023/11/16 00:37:10;;;;;;;7.90;1.15;;;;;;;6.62;100.00;93283.88;2100809;28;20114;-77
2023/11/16 00:38:25;;;;;;;2.65;1.00;;;;;;;6.62;100.00;93286.53;2108030;28;20061;-79
2023/11/16 00:39:36;;;;;;;6.47;0.88;;;;;;;6.48;100.00;93288.09;2113942;28;20023;-78
2023/11/16 00:40:44;;;;;;;3.03;0.80;;;;;;;6.52;100.00;93291.50;2115451;28;20038;-81
2023/11/16 00:41:51;;;;;;;2.45;0.70;;;;;;;6.49;100.00;93286.94;2103316;28;20032;-79
2023/11/16 00:42:55;;;;;;;4.85;1.20;;;;;;;6.46;100.00;93290.38;2107864;27;20031;-82
2023/11/16 00:43:56;;;;;;;3.78;0.90;;;;;;;6.44;100.00;93287.34;2106180;28;20036;-80
2023/11/16 00:44:58;;;;;;;6.05;1.40;;;;;;;6.39;100.00;93289.66;2106326;28;20448;-79
2023/11/16 00:46:04;;;;;;;7.55;1.15;;;;;;;6.46;100.00;93289.63;2097284;28;20127;-78
2023/11/16 00:47:08;;;;;;;4.85;0.93;;;;;;;6.45;100.00;93288.88;2099470;28;20466;-78
2023/11/16 00:48:18;;;;;;;4.70;1.10;;;;;;;6.46;100.00;93287.72;2115453;28;20020;-80
2023/11/16 00:49:25;;;;;;;3.17;0.93;;;;;;;6.47;100.00;93291.91;2098107;28;20481;-80
2023/11/16 00:50:28;;;;;;;3.35;0.90;;;;;;;6.41;100.00;93287.34;2100036;28;20134;-77
2023/11/16 00:51:30;;;;;;;2.88;0.60;;;;;;;6.40;100.00;93294.56;2119503;27;20433;-79
2023/11/16 00:52:33;;;;;;;4.47;0.70;;;;;;;6.59;100.00;93295.28;2118504;27;20031;-79
2023/11/16 00:53:44;;;;;;;3.03;0.80;;;;;;;6.52;100.00;93296.06;2119743;27;20024;-81
2023/11/16 00:54:53;;;;;;;5.15;0.80;;;;;;;6.50;100.00;93283.16;2106970;28;20027;-80
2023/11/16 00:55:59;;;;;;;5.35;1.00;;;;;;;6.59;100.00;93288.06;2106936;28;20409;-77
2023/11/16 00:57:11;;;;;;;6.82;0.95;;;;;;;6.54;100.00;93280.47;2106947;28;20770;-80
2023/11/16 00:58:17;;;;;;;5.18;1.10;;;;;;;6.53;100.00;93282.38;2106385;28;20031;-78
2023/11/16 00:59:22;;;;;;;3.05;0.80;;;;;;;6.49;100.00;93284.28;2101069;28;20031;-78
2023/11/16 01:00:28;;;;;;;3.65;1.33;;;;;;;6.42;100.00;93281.69;2100139;28;20505;-79
2023/11/16 01:01:30;;;;;;;4.95;1.20;;;;;;;6.33;100.00;93283.97;2105098;28;20077;-77
2023/11/16 01:02:32;;;;;;;4.57;0.70;;;;;;;6.45;100.00;93283.56;2102504;28;20108;-79
2023/11/16 01:03:39;;;;;;;6.75;1.08;;;;;;;6.65;100.00;93285.75;2110960;28;20027;-78
2023/11/16 01:04:44;;;;;;;2.42;0.82;;;;;;;6.73;100.00;93280.03;2107164;28;20020;-77
2023/11/16 01:05:49;;;;;;;3.28;0.80;;;;;;;6.59;100.00;93279.34;2115366;27;20394;-79
2023/11/16 01:06:53;;;;;;;3.30;0.80;;;;;;;6.76;100.00;93273.97;2116909;28;20023;-76
2023/11/16 01:07:54;;;;;;;4.28;0.95;;;;;;;6.68;100.00;93280.44;2108848;28;20519;-76
2023/11/16 01:08:59;;;;;;;3.38;0.80;;;;;;;6.73;100.00;93276.63;2107630;28;20031;-78
2023/11/16 01:10:03;;;;;;;2.25;0.60;;;;;;;6.71;100.00;93276.25;2108156;28;20019;-78
2023/11/16 01:11:06;;;;;;;3.90;0.98;;;;;;;6.58;100.00;93278.56;2110662;28;20090;-79
2023/11/16 01:12:18;;;;;;;3.53;1.15;;;;;;;6.57;100.00;93285.78;2106482;28;20035;-81
2023/11/16 01:13:28;;;;;;;2.33;1.15;;;;;;;6.61;100.00;93285.78;2107720;28;20428;-80
2023/11/16 01:14:40;;;;;;;3.33;0.82;;;;;;;6.64;100.00;93292.97;2115669;28;20468;-77
2023/11/16 01:15:44;;;;;;;4.38;1.02;;;;;;;6.64;100.00;93281.59;2109694;27;20035;-76
2023/11/16 01:16:53;;;;;;;2.97;0.77;;;;;;;6.50;100.00;93285.81;2109896;28;20149;-80
2023/11/16 01:17:59;;;;;;;4.07;1.15;;;;;;;6.36;100.00;93285.84;2106459;28;20504;-77
2023/11/16 01:19:00;;;;;;;1.67;0.73;;;;;;;6.30;100.00;93287.41;2112980;28;20073;-77
2023/11/16 01:20:07;;;;;;;4.88;0.70;;;;;;;6.30;100.00;93279.44;2107134;28;20496;-81
2023/11/16 01:21:09;;;;;;;3.25;1.00;;;;;;;6.26;100.00;93276.03;2106646;28;20016;-78
2023/11/16 01:22:15;;;;;;;3.80;0.85;;;;;;;6.28;100.00;93281.72;2103545;28;20051;-80
2023/11/16 01:23:19;;;;;;;3.25;1.00;;;;;;;6.24;100.00;93275.66;2098601;28;20080;-78
2023/11/16 01:24:28;;;;;;;2.90;0.85;;;;;;;6.28;100.00;93287.03;2090000;28;20053;-81
2023/11/16 01:25:32;;;;;;;4.30;0.88;;;;;;;6.25;100.00;93269.97;2099090;28;20024;-79
2023/11/16 01:26:39;;;;;;;1.10;0.73;;;;;;;6.16;100.00;93276.81;2106420;28;20112;-80
2023/11/16 01:27:50;;;;;;;3.72;0.98;;;;;;;6.24;100.00;93268.47;2090546;28;20839;-79
2023/11/16 01:29:01;;;;;;;3.33;0.77;;;;;;;6.12;100.00;93268.13;2101694;28;20028;-80
2023/11/16 01:30:03;;;;;;;2.22;1.00;;;;;;;6.24;100.00;93270.34;2114907;28;20102;-77
2023/11/16 01:31:05;;;;;;;3.00;0.77;;;;;;;6.17;100.00;93271.13;2114992;28;20475;-78
2023/11/16 01:32:08;;;;;;;2.45;0.70;;;;;;;6.19;100.00;93262.78;2107705;28;20020;-78
2023/11/16 01:33:15;;;;;;;2.03;0.70;;;;;;;6.13;100.00;93264.31;2106745;28;20028;-76
2023/11/16 01:34:18;;;;;;;3.83;0.70;;;;;;;6.07;100.00;93263.19;2114983;28;20376;-79
2023/11/16 01:35:21;;;;;;;2.17;0.85;;;;;;;6.15;100.00;93256.75;2115141;28;20031;-79
2023/11/16 01:36:24;;;;;;;3.30;0.90;;;;;;;6.14;100.00;93255.97;2103486;28;20382;-78
2023/11/16 01:37:25;;;;;;;1.90;0.88;;;;;;;6.17;100.00;93257.09;2106389;28;20024;-81
2023/11/16 01:38:26;;;;;;;2.88;0.90;;;;;;;6.19;100.00;93249.50;2109199;28;21365;-78
2023/11/16 01:39:27;;;;;;;3.35;0.73;;;;;;;6.15;100.00;93252.19;2089911;28;20060;-80
2023/11/16 01:40:28;;;;;;;3.53;0.90;;;;;;;6.01;100.00;93247.69;2098270;28;20016;-79
2023/11/16 01:41:37;;;;;;;1.55;0.80;;;;;;;6.04;100.00;93246.88;2106667;28;20058;-82
2023/11/16 01:42:38;;;;;;;3.95;1.10;;;;;;;6.11;100.00;93240.81;2099483;28;20385;-78
2023/11/16 01:43:40;;;;;;;2.28;0.90;;;;;;;6.02;100.00;93243.13;2106785;28;20028;-76
2023/11/16 01:44:41;;;;;;;2.75;0.80;;;;;;;6.07;100.00;93248.03;2116088;28;20019;-80
2023/11/16 01:45:42;;;;;;;1.67;0.70;;;;;;;6.00;100.00;93243.50;2106020;28;20024;-80
2023/11/16 01:46:43;;;;;;;3.33;0.63;;;;;;;5.91;100.00;93245.00;2106739;28;20027;-77
2023/11/16 01:47:45;;;;;;;3.85;0.63;;;;;;;5.94;100.00;93247.69;2106630;28;20028;-80
2023/11/16 01:48:49;;;;;;;5.55;0.90;;;;;;;5.89;100.00;93252.59;2108090;28;20100;-79
2023/11/16 01:49:50;;;;;;;3.45;0.70;;;;;;;5.91;100.00;93250.31;2109214;28;20039;-79
2023/11/16 01:50:52;;;;;;;5.88;1.05;;;;;;;5.98;100.00;93240.47;2098333;28;20020;-81
2023/11/16 01:51:55;;;;;;;2.97;0.90;;;;;;;5.94;100.00;93237.06;2113295;28;20234;-78
2023/11/16 01:53:04;;;;;;;2.85;0.90;;;;;;;5.87;100.00;93238.94;2113641;28;20031;-81
2023/11/16 01:54:06;;;;;;;2.67;0.85;;;;;;;5.85;100.00;93234.03;2103690;28;20381;-77
2023/11/16 01:55:07;;;;;;;3.42;1.00;;;;;;;5.71;100.00;93234.06;2098377;28;20497;-80
2023/11/16 01:56:09;;;;;;;2.95;1.75;;;;;;;5.70;100.00;93235.94;2098709;28;20024;-79
2023/11/16 01:57:11;;;;;;;2.72;1.00;;;;;;;5.77;100.00;93229.88;2115424;28;20011;-77
2023/11/16 01:58:14;;;;;;;3.13;0.85;;;;;;;5.73;100.00;93231.78;2115154;28;20022;-78
2023/11/16 01:59:15;;;;;;;3.33;0.80;;;;;;;5.73;100.00;93231.78;2115627;27;20023;-77
2023/11/16 02:00:16;;;;;;;1.52;0.68;;;;;;;5.64;100.00;93234.81;2115089;28;20027;-80
2023/11/16 02:01:19;;;;;;;2.50;0.88;;;;;;;5.67;100.00;93238.63;2115002;28;20453;-79
2023/11/16 02:02:22;;;;;;;1.70;0.80;;;;;;;5.66;100.00;93237.06;2106114;28;20034;-81
2023/11/16 02:03:23;;;;;;;3.25;1.00;;;;;;;5.65;100.00;93236.31;2113601;28;20100;-77
2023/11/16 02:04:24;;;;;;;3.67;1.00;;;;;;;5.72;100.00;93235.56;2110863;28;20082;-79
2023/11/16 02:05:25;;;;;;;3.80;0.90;;;;;;;5.74;100.00;93233.28;2106463;28;20028;-80
2023/11/16 02:06:26;;;;;;;1.85;0.68;;;;;;;5.78;100.00;93242.75;2094494;28;20020;-79
2023/11/16 02:07:27;;;;;;;1.77;0.80;;;;;;;5.69;100.00;93244.28;2097387;28;20477;-77
2023/11/16 02:08:28;;;;;;;5.18;0.80;;;;;;;5.77;100.00;93245.78;2106694;28;20020;-80
2023/11/16 02:09:29;;;;;;;1.83;0.70;;;;;;;5.72;100.00;93244.28;2106533;28;20044;-77
2023/11/16 02:10:31;;;;;;;2.08;0.63;;;;;;;5.62;100.00;93245.06;2114581;28;20027;-79
2023/11/16 02:11:32;;;;;;;2.55;0.70;;;;;;;5.66;100.00;93231.78;2106321;28;20031;-81
2023/11/16 02:12:33;;;;;;;4.88;1.00;;;;;;;5.67;100.00;93238.63;2097971;28;20112;-80
2023/11/16 02:13:36;;;;;;;2.67;0.85;;;;;;;5.76;100.00;93231.03;2106239;28;20032;-80
2023/11/16 02:14:37;;;;;;;1.85;0.70;;;;;;;5.83;100.00;93225.69;2106589;28;20028;-79
2023/11/16 02:15:39;;;;;;;12.20;1.10;;;;;;;5.80;100.00;93237.84;2106197;28;20372;-79
2023/11/16 02:16:41;;;;;;;4.93;0.88;;;;;;;5.76;100.00;93231.78;2110334;28;20076;-80
2023/11/16 02:17:42;;;;;;;2.03;0.90;;;;;;;5.77;100.00;93232.53;2104176;28;20099;-79
2023/11/16 02:18:43;;;;;;;1.65;0.90;;;;;;;5.72;100.00;93233.69;2097865;28;20024;-77
2023/11/16 02:19:44;;;;;;;4.72;0.82;;;;;;;5.64;100.00;93232.16;2106475;28;20043;-82
2023/11/16 02:20:46;;;;;;;4.35;0.90;;;;;;;5.66;100.00;93232.53;2097337;28;20078;-80
2023/11/16 02:21:48;;;;;;;5.07;0.80;;;;;;;5.64;100.00;93237.47;2089362;28;20029;-79
2023/11/16 02:22:52;;;;;;;3.05;0.90;;;;;;;5.84;100.00;93237.06;2100491;28;20039;-81
2023/11/16 02:25:56;;;;;;;2.75;1.10;;;;;;;5.72;100.00;93240.88;2097347;28;20020;-79
2023/11/16 02:28:55;;;;;;;2.17;0.80;;;;;;;5.58;100.00;93238.25;2105003;28;20044;-81
2023/11/16 02:31:53;;;;;;;5.05;0.85;;;;;;;5.41;100.00;93235.22;2113848;28;20469;-79
2023/11/16 02:32:55;;;;;;;2.42;0.60;;;;;;;5.29;100.00;93232.94;2114290;28;20065;-80
2023/11/16 02:33:56;;;;;;;1.00;0.60;;;;;;;5.41;100.00;93232.56;2112429;28;20027;-77
2023/11/16 02:34:57;;;;;;;2.33;0.90;;;;;;;5.39;100.00;93226.88;2108238;28;20056;-78
2023/11/16 02:35:58;;;;;;;1.83;1.00;;;;;;;5.35;100.00;93231.41;2113840;28;20093;-78
2023/11/16 02:36:59;;;;;;;1.30;0.80;;;;;;;5.39;100.00;93226.88;2114467;28;20035;-76
2023/11/16 02:38:00;;;;;;;3.72;0.90;;;;;;;5.33;100.00;93231.06;2116389;28;20111;-81
2023/11/16 02:39:02;;;;;;;3.60;0.90;;;;;;;5.32;100.00;93221.59;2114164;28;20033;-78
2023/11/16 02:40:04;;;;;;;1.08;0.77;;;;;;;5.39;100.00;93218.94;2114644;28;20020;-80
2023/11/16 02:41:06;;;;;;;3.40;0.98;;;;;;;5.41;100.00;93218.56;2098258;28;20027;-82
2023/11/16 02:42:10;;;;;;;3.50;1.15;;;;;;;5.64;100.00;93218.16;2080959;28;20513;-78
2023/11/16 02:43:11;;;;;;;3.58;0.90;;;;;;;5.66;100.00;93221.91;2081242;28;20021;-80
2023/11/16 02:44:14;;;;;;;2.53;0.82;;;;;;;5.57;100.00;93218.91;2098911;28;20020;-79
2023/11/16 02:45:16;;;;;;;3.33;0.70;;;;;;;5.44;100.00;93225.72;2114056;28;20024;-79
2023/11/16 02:46:17;;;;;;;4.18;0.80;;;;;;;5.42;100.00;93218.19;2111869;28;20030;-78
2023/11/16 02:47:19;;;;;;;3.22;0.90;;;;;;;5.48;100.00;93226.50;2109669;28;20024;-77
2023/11/16 02:48:20;;;;;;;4.60;0.95;;;;;;;5.49;100.00;93217.44;2105624;28;20078;-81
2023/11/16 02:49:21;;;;;;;2.80;0.90;;;;;;;5.37;100.00;93207.97;2114429;28;20061;-81
2023/11/16 02:50:22;;;;;;;6.13;0.82;;;;;;;5.25;100.00;93211.75;2114731;28;20024;-78
2023/11/16 02:51:23;;;;;;;3.13;0.80;;;;;;;5.29;100.00;93211.75;2121198;28;20106;-82
2023/11/16 02:52:24;;;;;;;2.85;0.85;;;;;;;5.20;100.00;93206.81;2122686;28;20038;-77
2023/11/16 02:53:25;;;;;;;3.45;1.10;;;;;;;5.28;100.00;93195.09;2113878;28;20051;-78
2023/11/16 02:54:27;;;;;;;2.30;1.05;;;;;;;5.26;100.00;93199.25;2094391;28;20151;-80
2023/11/16 02:55:29;;;;;;;5.15;1.10;;;;;;;5.14;100.00;93194.34;2097414;28;20040;-81
2023/11/16 02:56:33;;;;;;;2.20;0.80;;;;;;;5.08;100.00;93199.25;2105605;28;20090;-80
2023/11/16 02:57:35;;;;;;;1.45;0.95;;;;;;;5.14;100.00;93199.66;2105721;28;20384;-77
2023/11/16 02:58:41;;;;;;;4.85;1.00;;;;;;;5.19;100.00;93200.00;2122307;28;20565;-80
2023/11/16 02:59:42;;;;;;;4.53;1.05;;;;;;;5.27;100.00;93196.22;2112474;28;20486;-79
2023/11/16 03:00:44;;;;;;;4.78;1.10;;;;;;;5.29;100.00;93191.28;2110596;28;20054;-80
2023/11/16 03:01:45;;;;;;;8.30;1.00;;;;;;;5.25;100.00;93187.88;2116733;28;20030;-80
2023/11/16 03:02:51;;;;;;;3.10;1.10;;;;;;;5.32;100.00;93189.03;2113331;28;20030;-78
2023/11/16 03:03:54;;;;;;;1.75;0.82;;;;;;;5.17;100.00;93191.69;2105407;28;20106;-77
2023/11/16 03:04:55;;;;;;;5.43;1.00;;;;;;;5.37;100.00;93178.81;2099169;28;20029;-78
2023/11/16 03:05:56;;;;;;;3.33;1.30;;;;;;;5.33;100.00;93182.59;2095707;28;20056;-78
2023/11/16 03:06:57;;;;;;;2.00;1.00;;;;;;;5.35;100.00;93175.75;2102950;28;20029;-78
2023/11/16 03:07:58;;;;;;;3.33;1.00;;;;;;;5.33;100.00;93172.00;2104650;28;20028;-79
2023/11/16 03:08:59;;;;;;;4.35;1.33;;;;;;;5.36;100.00;93177.28;2093138;28;20036;-78
2023/11/16 03:10:01;;;;;;;5.15;1.15;;;;;;;5.21;100.00;93171.22;2104472;28;20095;-79
2023/11/16 03:11:02;;;;;;;2.20;0.90;;;;;;;5.14;100.00;93170.50;2113147;28;20080;-79
2023/11/16 03:12:04;;;;;;;3.58;1.00;;;;;;;5.22;100.00;93172.78;2114561;28;20035;-79
2023/11/16 03:13:05;;;;;;;4.07;1.02;;;;;;;5.21;100.00;93176.53;2109304;28;20068;-78
2023/11/16 03:14:06;;;;;;;1.85;0.80;;;;;;;5.08;100.00;93172.75;2105582;28;20066;-79
2023/11/16 03:15:08;;;;;;;6.72;1.35;;;;;;;5.25;100.00;93158.00;2105494;28;20028;-79
2023/11/16 03:16:09;;;;;;;4.53;1.20;;;;;;;5.35;100.00;93167.06;2097406;28;20029;-78
2023/11/16 03:17:11;;;;;;;2.67;1.00;;;;;;;5.22;100.00;93164.03;2105624;28;20032;-78
2023/11/16 03:22:33;;;;;;;2.03;0.80;;;;;;;5.30;100.00;93154.94;2109085;28;20024;-78
2023/11/16 03:24:10;;;;;;;5.20;1.15;;;;;;;5.23;100.00;93157.63;2092329;28;20028;-78
2023/11/16 03:25:11;;;;;;;2.42;0.90;;;;;;;5.15;100.00;93162.16;2114457;27;20046;-81
2023/11/16 03:26:13;;;;;;;2.10;0.80;;;;;;;5.27;100.00;93155.72;2104801;28;20073;-77
2023/11/16 03:27:14;;;;;;;4.35;1.33;;;;;;;5.27;100.00;93158.38;2100220;28;20078;-77
2023/11/16 03:32:18;;;;;;;4.25;0.80;;;;;;;5.25;100.00;93158.00;2114253;27;20177;-80
2023/11/16 03:33:34;;;;;;;1.15;0.77;;;;;;;5.24;100.00;93154.59;2094813;28;20075;-78
2023/11/16 03:34:36;;;;;;;3.20;0.88;;;;;;;5.34;100.00;93158.34;2092011;28;20442;-77
2023/11/16 03:35:37;;;;;;;2.10;0.80;;;;;;;5.37;100.00;93162.91;2108034;28;20030;-79
2023/11/16 03:36:39;;;;;;;2.75;0.80;;;;;;;5.38;100.00;93166.31;2098347;28;20377;-77
2023/11/16 03:37:47;;;;;;;5.43;1.00;;;;;;;5.32;100.00;93160.63;2089605;28;20077;-79
2023/11/16 03:38:48;;;;;;;3.05;0.88;;;;;;;5.33;100.00;93169.34;2090959;28;20026;-79
2023/11/16 03:39:49;;;;;;;4.30;0.85;;;;;;;5.37;100.00;93152.31;2083163;28;20104;-79
2023/11/16 03:40:51;;;;;;;3.35;0.95;;;;;;;5.27;100.00;93163.69;2096918;28;20052;-81
2023/11/16 03:41:53;;;;;;;2.47;1.00;;;;;;;5.35;100.00;93159.09;2100276;28;20029;-76
2023/11/16 03:42:54;;;;;;;4.95;0.90;;;;;;;5.31;100.00;93153.81;2112698;28;20023;-82
2023/11/16 03:43:55;;;;;;;5.35;1.15;;;;;;;5.36;100.00;93156.09;2101062;28;20481;-77
2023/11/16 03:44:56;;;;;;;3.50;1.05;;;;;;;5.31;100.00;93148.50;2091330;28;20033;-76
2023/11/16 03:45:57;;;;;;;3.55;1.00;;;;;;;5.33;100.00;93135.66;2091728;28;20473;-79
2023/11/16 03:46:59;;;;;;;1.75;0.90;;;;;;;5.38;100.00;93137.16;2093778;28;20016;-78
2023/11/16 03:48:00;;;;;;;3.85;0.95;;;;;;;5.40;100.00;93135.63;2099632;28;20029;-80
2023/11/16 03:49:00;;;;;;;2.65;1.00;;;;;;;5.38;100.00;93143.22;2107866;28;20024;-77
2023/11/16 03:50:04;;;;;;;1.30;0.80;;;;;;;5.37;100.00;93138.28;2116789;28;20053;-79
2023/11/16 03:51:06;;;;;;;5.55;1.10;;;;;;;5.32;100.00;93142.09;2099031;28;20016;-78
2023/11/16 03:52:07;;;;;;;2.42;0.77;;;;;;;5.33;100.00;93133.00;2090487;28;20111;-77
2023/11/16 03:53:08;;;;;;;7.00;1.17;;;;;;;5.38;100.00;93134.50;2090533;28;20036;-79
2023/11/16 03:54:09;;;;;;;4.53;1.10;;;;;;;5.31;100.00;93143.22;2095099;28;20016;-80
2023/11/16 03:55:10;;;;;;;2.85;0.88;;;;;;;5.29;100.00;93140.94;2116267;28;20027;-76
2023/11/16 03:56:11;;;;;;;2.38;0.82;;;;;;;5.33;100.00;93148.16;2115713;28;20026;-81
2023/11/16 03:57:13;;;;;;;2.13;0.70;;;;;;;5.38;100.00;93145.84;2098605;28;20052;-78
2023/11/16 03:58:22;;;;;;;2.17;1.10;;;;;;;5.47;100.00;93151.50;2082570;28;20112;-81
2023/11/16 03:59:26;;;;;;;3.35;1.10;;;;;;;5.38;100.00;93153.81;2092043;28;20033;-77
2023/11/16 04:00:27;;;;;;;2.30;0.98;;;;;;;5.39;100.00;93144.72;2100496;28;20067;-77
2023/11/16 04:01:33;;;;;;;2.65;0.88;;;;;;;5.36;100.00;93145.50;2099375;28;20021;-78
2023/11/16 04:02:35;;;;;;;2.80;0.80;;;;;;;5.34;100.00;93142.44;2110392;28;20073;-79
2023/11/16 04:03:36;;;;;;;3.70;0.73;;;;;;;5.39;100.00;93138.66;2113951;28;20027;-79
2023/11/16 04:04:37;;;;;;;1.75;0.88;;;;;;;5.37;100.00;93141.69;2105073;28;20032;-78
2023/11/16 04:05:38;;;;;;;3.95;0.90;;;;;;;5.38;100.00;93137.91;2111481;28;20019;-77
2023/11/16 04:06:43;;;;;;;3.72;1.25;;;;;;;5.39;100.00;93136.75;2103295;28;20031;-79
2023/11/16 04:07:44;;;;;;;2.35;0.82;;;;;;;5.38;100.00;93134.50;2106357;28;20024;-79
2023/11/16 04:08:46;;;;;;;1.02;0.70;;;;;;;5.18;100.00;93140.22;2103559;28;20040;-80
2023/11/16 04:09:47;;;;;;;2.85;0.70;;;;;;;5.26;100.00;93136.41;2090925;28;20091;-78
2023/11/16 04:10:48;;;;;;;2.22;0.75;;;;;;;5.29;100.00;93135.66;2099355;28;20469;-80
2023/11/16 04:11:50;;;;;;;1.48;0.82;;;;;;;5.16;100.00;93136.44;2106830;28;20028;-78
2023/11/16 04:12:50;;;;;;;3.10;0.75;;;;;;;5.15;100.00;93132.28;2102299;28;20013;-76
2023/11/16 04:13:51;;;;;;;3.30;1.20;;;;;;;5.18;100.00;93136.78;2102677;28;20029;-77
2023/11/16 04:14:52;;;;;;;1.60;0.90;;;;;;;5.18;100.00;93134.13;2092495;28;20108;-78
2023/11/16 04:15:53;;;;;;;2.78;0.80;;;;;;;5.18;100.00;93145.53;2100444;28;20090;-77
2023/11/16 04:16:55;;;;;;;2.92;0.90;;;;;;;5.15;100.00;93140.97;2108913;28;20479;-76
2023/11/16 04:17:56;;;;;;;1.33;0.65;;;;;;;5.08;100.00;93132.25;2105460;28;20054;-76
2023/11/16 04:18:58;;;;;;;3.88;0.70;;;;;;;5.03;100.00;93133.41;2100112;28;20020;-76
2023/11/16 04:19:59;;;;;;;4.72;0.95;;;;;;;5.19;100.00;93130.38;2100228;28;20017;-79
2023/11/16 04:21:07;;;;;;;0.98;0.70;;;;;;;5.08;100.00;93125.06;2109470;28;20024;-77
2023/11/16 04:22:10;;;;;;;2.78;0.90;;;;;;;5.13;100.00;93127.34;2092152;28;20167;-77
2023/11/16 04:23:11;;;;;;;2.45;0.90;;;;;;;5.26;100.00;93125.03;2095154;28;20385;-77
2023/11/16 04:24:13;;;;;;;2.15;0.70;;;;;;;5.24;100.00;93132.63;2091520;28;20029;-78
2023/11/16 04:25:22;;;;;;;6.72;0.85;;;;;;;5.28;100.00;93130.72;2100945;28;20096;-80
2023/11/16 04:26:25;;;;;;;2.28;0.85;;;;;;;5.32;100.00;93128.84;2110668;28;20558;-77
2023/11/16 04:27:26;;;;;;;3.08;0.77;;;;;;;5.28;100.00;93133.38;2109062;28;20027;-79
2023/11/16 04:28:29;;;;;;;5.20;0.80;;;;;;;5.28;100.00;93136.03;2109055;28;20051;-77
2023/11/16 04:29:35;;;;;;;3.60;0.70;;;;;;;5.17;100.00;93132.63;2112452;28;20016;-79
2023/11/16 04:30:36;;;;;;;1.95;1.00;;;;;;;5.27;100.00;93123.94;2104074;28;20032;-77
2023/11/16 04:31:37;;;;;;;2.20;0.77;;;;;;;5.29;100.00;93129.59;2097374;28;20451;-76
2023/11/16 04:32:42;;;;;;;4.20;0.80;;;;;;;5.15;100.00;93125.06;2093407;28;20040;-79
2023/11/16 04:33:44;;;;;;;3.47;0.90;;;;;;;5.22;100.00;93121.66;2093148;28;20140;-79
2023/11/16 04:34:45;;;;;;;1.42;0.70;;;;;;;5.25;100.00;93123.53;2104362;28;20036;-79
2023/11/16 04:35:45;;;;;;;2.47;0.80;;;;;;;5.10;100.00;93124.72;2109159;28;20051;-78
2023/11/16 04:36:48;;;;;;;1.67;1.23;;;;;;;5.11;100.00;93124.31;2100927;28;20040;-77
2023/11/16 04:37:50;;;;;;;2.42;1.60;;;;;;;5.21;100.00;93123.53;2098880;28;20025;-79
2023/11/16 04:38:51;;;;;;;4.70;1.35;;;;;;;5.32;100.00;93126.19;2098259;28;20020;-77
2023/11/16 04:39:52;;;;;;;5.05;1.15;;;;;;;5.34;100.00;93126.56;2103644;28;20034;-78
2023/11/16 04:40:53;;;;;;;2.50;1.00;;;;;;;5.30;100.00;93123.91;2115378;28;20522;-77
2023/11/16 04:41:54;;;;;;;4.15;0.88;;;;;;;5.30;100.00;93129.19;2103744;28;20464;-77
2023/11/16 04:42:55;;;;;;;2.28;0.80;;;;;;;5.33;100.00;93124.28;2099383;28;20024;-79
2023/11/16 04:43:56;;;;;;;2.63;0.88;;;;;;;5.30;100.00;93126.56;2099869;28;20504;-77
2023/11/16 04:44:57;;;;;;;5.30;0.88;;;;;;;5.20;100.00;93126.56;2095383;28;20485;-81
2023/11/16 04:45:59;;;;;;;1.33;0.73;;;;;;;5.00;100.00;93129.63;2099619;28;20059;-79
2023/11/16 04:47:00;;;;;;;3.25;1.23;;;;;;;5.14;100.00;93130.75;2114473;28;20020;-78
2023/11/16 04:48:02;;;;;;;3.70;1.10;;;;;;;5.19;100.00;93128.47;2117486;28;20027;-79
2023/11/16 04:49:04;;;;;;;3.70;1.27;;;;;;;5.26;100.00;93125.81;2107874;28;20032;-78
2023/11/16 04:50:17;;;;;;;3.67;1.30;;;;;;;5.26;100.00;93131.09;2099697;28;20020;-79
2023/11/16 04:51:19;;;;;;;2.33;1.83;;;;;;;5.21;100.00;93126.19;2091110;28;20036;-78
2023/11/16 04:52:20;;;;;;;6.32;2.05;;;;;;;5.19;100.00;93135.69;2094512;28;20524;-76
2023/11/16 04:53:21;;;;;;;2.97;1.98;;;;;;;5.15;100.00;93134.91;2111819;28;20098;-77
2023/11/16 04:54:22;;;;;;;2.65;1.80;;;;;;;5.19;100.00;93133.78;2107866;28;20035;-78
2023/11/16 04:55:23;;;;;;;4.35;1.65;;;;;;;5.28;100.00;93139.44;2107609;28;20028;-78
2023/11/16 04:56:25;;;;;;;2.00;1.35;;;;;;;5.29;100.00;93137.53;2118622;28;20008;-78
2023/11/16 04:57:27;;;;;;;2.80;1.20;;;;;;;5.26;100.00;93138.28;2108562;28;20039;-77
2023/11/16 04:58:28;;;;;;;1.75;1.20;;;;;;;5.30;100.00;93137.16;2108418;28;20032;-80
2023/11/16 04:59:29;;;;;;;1.05;0.98;;;;;;;5.34;100.00;93136.41;2115938;28;20019;-80
2023/11/16 05:00:30;;;;;;;2.92;1.20;;;;;;;5.34;100.00;93125.78;2111972;28;20051;-82
2023/11/16 05:01:31;;;;;;;5.75;1.20;;;;;;;5.39;100.00;93134.09;2097451;28;20051;-79
2023/11/16 05:02:33;;;;;;;2.70;0.90;;;;;;;5.32;100.00;93126.19;2094705;28;20024;-78
2023/11/16 05:03:34;;;;;;;3.13;0.85;;;;;;;5.34;100.00;93126.56;2102046;28;20036;-78
2023/11/16 05:04:35;;;;;;;1.45;1.00;;;;;;;5.39;100.00;93123.50;2108989;28;20103;-78
2023/11/16 05:05:36;;;;;;;1.50;0.98;;;;;;;5.39;100.00;93118.19;2090768;28;20029;-76
2023/11/16 05:06:41;;;;;;;2.25;0.93;;;;;;;5.42;100.00;93114.78;2093215;28;20036;-78
2023/11/16 05:07:42;;;;;;;1.98;0.85;;;;;;;5.31;100.00;93100.81;2100328;28;20027;-79
2023/11/16 05:08:43;;;;;;;3.20;0.60;;;;;;;5.19;100.00;93101.22;2091110;28;20025;-78
2023/11/16 05:09:44;;;;;;;3.20;0.60;;;;;;;5.19;100.00;93099.34;2099083;28;20024;-79
2023/11/16 05:10:47;;;;;;;1.70;0.70;;;;;;;5.18;100.00;93097.03;2113922;28;20023;-78
2023/11/16 05:11:50;;;;;;;3.25;0.70;;;;;;;5.21;100.00;93096.28;2107066;28;20031;-80
2023/11/16 05:12:52;;;;;;;2.85;0.80;;;;;;;5.18;100.00;93086.44;2097862;28;20029;-78
2023/11/16 05:13:53;;;;;;;2.35;0.88;;;;;;;5.23;100.00;93086.84;2098513;28;20032;-80
2023/11/16 05:14:54;;;;;;;6.50;0.80;;;;;;;5.24;100.00;93087.59;2098840;28;20568;-82
2023/11/16 05:15:56;;;;;;;3.25;0.85;;;;;;;5.21;100.00;93091.00;2103758;28;20527;-80
2023/11/16 05:16:58;;;;;;;6.25;1.00;;;;;;;5.18;100.00;93091.75;2111731;28;20028;-78
2023/11/16 05:17:59;;;;;;;5.38;0.88;;;;;;;5.17;100.00;93087.59;2115918;28;20095;-79
2023/11/16 05:19:00;;;;;;;1.90;0.90;;;;;;;5.08;100.00;93084.56;2116585;28;20098;-81